Time;durP1;ratioP1;P1;durP2;ratioP2;P2;SDS_P1;SDS_P2;PMS_P1;PMS_P2;Temp;Humidity;BMP_temperature;BMP_pressure;BME280_temperature;BME280_humidity;BME280_pressure;Samples;Min_cycle;Max_cycle;Signal;HPM_P1;HPM_P2
2022/12/14 00:03:47;;;;;;;23.13;9.68;;;;;;;-1.34;81.60;99483.66;8324201;28;20296;-51
2022/12/14 00:07:47;;;;;;;22.42;9.82;;;;;;;-1.31;81.29;99472.84;8324390;28;20044;-53
2022/12/14 00:11:48;;;;;;;21.92;9.68;;;;;;;-1.31;81.27;99478.16;8324607;28;20037;-51
2022/12/14 00:15:48;;;;;;;21.77;9.65;;;;;;;-1.29;81.06;99476.28;8323522;28;20034;-51
2022/12/14 00:19:49;;;;;;;24.08;9.07;;;;;;;-1.32;81.06;99455.25;8341111;28;20056;-53
2022/12/14 00:23:50;;;;;;;24.70;10.07;;;;;;;-1.36;81.29;99453.75;8334678;28;20045;-51
2022/12/14 00:27:51;;;;;;;26.20;10.13;;;;;;;-1.38;81.06;99450.34;8321617;28;20069;-54
2022/12/14 00:31:51;;;;;;;24.38;9.95;;;;;;;-1.35;81.14;99452.81;8337262;28;20029;-51
2022/12/14 00:35:52;;;;;;;22.25;9.38;;;;;;;-1.34;81.13;99451.84;8319704;28;20052;-51
2022/12/14 00:39:52;;;;;;;21.23;9.00;;;;;;;-1.29;80.76;99444.47;8323072;28;20045;-50
2022/12/14 00:43:53;;;;;;;23.40;10.75;;;;;;;-1.26;81.36;99444.28;8323622;28;20072;-51
2022/12/14 00:47:55;;;;;;;24.38;10.13;;;;;;;-1.24;80.93;99437.09;8323559;28;20094;-51
2022/12/14 00:51:55;;;;;;;22.60;9.98;;;;;;;-1.27;80.58;99426.69;8354343;28;20037;-51
2022/12/14 00:55:56;;;;;;;20.98;10.15;;;;;;;-1.21;80.45;99426.31;8305322;28;20041;-55
2022/12/14 00:59:56;;;;;;;20.20;9.05;;;;;;;-1.18;80.25;99442.03;8323611;28;20495;-51
2022/12/14 01:04:28;;;;;;;21.15;9.43;;;;;;;-1.20;80.62;99414.75;8323185;28;20057;-51
2022/12/14 01:08:17;;;;;;;20.52;10.00;;;;;;;-1.20;80.77;99420.06;8322994;28;20037;-53
2022/12/14 01:12:18;;;;;;;19.20;8.80;;;;;;;-1.17;80.54;99406.63;8323138;28;20037;-51
2022/12/14 01:16:18;;;;;;;22.35;9.43;;;;;;;-1.14;79.97;99406.44;8321075;28;20041;-51
2022/12/14 01:20:19;;;;;;;18.38;8.63;;;;;;;-1.14;80.50;99395.81;8343074;28;20155;-51
2022/12/14 01:24:19;;;;;;;20.80;8.50;;;;;;;-1.14;80.15;99379.06;8329699;28;20046;-52
2022/12/14 01:28:20;;;;;;;20.52;9.18;;;;;;;-1.09;79.86;99371.66;8322670;28;20041;-52
2022/12/14 01:32:20;;;;;;;21.30;9.75;;;;;;;-1.07;79.51;99370.63;8322708;28;20119;-51
2022/12/14 01:36:23;;;;;;;24.50;9.73;;;;;;;-1.10;80.33;99373.47;8322543;28;20037;-51
2022/12/14 01:40:24;;;;;;;21.40;9.17;;;;;;;-1.10;80.19;99354.06;8323108;28;20042;-52
2022/12/14 01:48:38;;;;;;;16.38;8.02;;;;;;;-1.10;79.94;99354.91;8412665;27;20468;-51
2022/12/14 01:52:44;;;;;;;18.25;9.00;;;;;;;-1.16;80.89;99360.59;8401570;27;20036;-51
2022/12/14 01:56:46;;;;;;;16.88;8.30;;;;;;;-1.13;81.51;99355.09;8399866;27;20043;-52
2022/12/14 02:00:48;;;;;;;17.80;8.52;;;;;;;-1.20;81.11;99345.84;8370974;28;20055;-51
2022/12/14 02:04:56;;;;;;;20.02;8.70;;;;;;;-1.22;81.87;99345.06;8367762;28;20394;-51
2022/12/14 02:08:57;;;;;;;20.10;7.82;;;;;;;-1.22;81.85;99339.75;8368247;28;20541;-52
2022/12/14 02:13:18;;;;;;;15.88;8.60;;;;;;;-1.31;82.73;99335.03;8367823;28;20402;-51
2022/12/14 02:17:19;;;;;;;19.50;9.07;;;;;;;-1.33;82.52;99321.06;8367212;28;20392;-51
2022/12/14 02:26:29;;;;;;;26.40;10.02;;;;;;;-1.37;82.96;99314.22;8318179;28;20477;-50
2022/12/14 02:30:36;;;;;;;19.63;8.20;;;;;;;-1.37;83.13;99303.63;8318449;28;20050;-49
2022/12/14 02:35:01;;;;;;;17.38;8.68;;;;;;;-1.39;83.64;99304.66;8318353;28;20042;-49
2022/12/14 02:39:15;;;;;;;20.05;8.68;;;;;;;-1.36;82.86;99292.09;8318726;28;20038;-49
2022/12/14 02:43:43;;;;;;;16.95;8.00;;;;;;;-1.32;83.20;99293.59;8317945;28;20515;-49
2022/12/14 02:52:11;;;;;;;16.45;8.52;;;;;;;-1.27;82.91;99288.88;8401180;27;20393;-49
2022/12/14 02:56:18;;;;;;;21.27;8.70;;;;;;;-1.26;83.40;99279.09;8401405;27;20028;-52
2022/12/14 03:00:19;;;;;;;17.17;8.82;;;;;;;-1.24;82.62;99267.47;8361189;28;20049;-49
2022/12/14 03:04:19;;;;;;;19.05;9.00;;;;;;;-1.25;83.01;99271.03;8351487;28;20065;-50
2022/12/14 03:08:20;;;;;;;17.02;9.13;;;;;;;-1.26;82.81;99258.75;8351091;28;20139;-49
2022/12/14 03:12:21;;;;;;;18.88;8.35;;;;;;;-1.26;82.81;99258.75;8350343;28;20044;-53
2022/12/14 03:16:30;;;;;;;19.85;8.32;;;;;;;-1.24;82.74;99251.56;8361198;28;20387;-49
2022/12/14 03:20:34;;;;;;;18.95;7.80;;;;;;;-1.24;83.00;99261.31;8357532;28;20049;-50
2022/12/14 03:24:37;;;;;;;;;;;;;;;-1.24;83.63;99271.91;8348803;28;20499;-50
2022/12/14 03:28:45;;;;;;;16.98;8.38;;;;;;;-1.25;83.72;99265.75;8374289;28;19917;-50
2022/12/14 03:32:50;;;;;;;18.88;8.95;;;;;;;-1.18;83.02;99271.50;8361389;28;20065;-50
2022/12/14 03:37:03;;;;;;;17.42;8.30;;;;;;;-1.17;82.88;99274.06;8348656;28;20111;-49
2022/12/14 03:41:30;;;;;;;17.40;8.48;;;;;;;-1.15;82.52;99274.81;8349085;28;20436;-53
2022/12/14 03:45:45;;;;;;;19.75;8.38;;;;;;;-1.12;82.73;99279.94;8354569;28;20033;-50
2022/12/14 03:50:08;;;;;;;18.23;8.80;;;;;;;-1.10;82.63;99275.38;8382143;28;20047;-51
2022/12/14 03:54:20;;;;;;;20.48;8.43;;;;;;;-1.06;82.46;99268.06;8371529;28;20033;-51
2022/12/14 03:58:38;;;;;;;18.73;8.90;;;;;;;-1.05;82.12;99249.41;8378102;28;20039;-48
2022/12/14 04:02:53;;;;;;;22.20;8.60;;;;;;;-1.03;81.49;99251.97;8337310;28;20075;-48
2022/12/14 04:07:01;;;;;;;18.13;8.05;;;;;;;-0.99;81.12;99250.81;8350645;28;20037;-47
2022/12/14 04:20:18;;;;;;;19.08;8.70;;;;;;;-0.96;80.58;99248.81;8326354;28;20407;-47
2022/12/14 04:26:12;;;;;;;15.45;7.57;;;;;;;-0.97;81.05;99241.81;8325457;28;20049;-47
2022/12/14 04:30:07;;;;;;;16.55;7.85;;;;;;;-0.97;81.25;99239.16;8350044;28;20029;-47
2022/12/14 04:34:01;;;;;;;16.55;8.25;;;;;;;-0.96;81.38;99227.59;8339364;28;20037;-47
2022/12/14 04:37:54;;;;;;;22.38;8.52;;;;;;;-0.96;81.59;99214.34;8325401;28;20030;-50
2022/12/14 04:41:59;;;;;;;20.55;7.82;;;;;;;-0.96;82.00;99219.66;8325635;28;20542;-50
2022/12/14 04:46:07;;;;;;;17.92;8.38;;;;;;;-0.95;81.87;99216.03;8326462;28;20068;-53
2022/12/14 04:54:31;;;;;;;17.42;8.70;;;;;;;-0.95;81.93;99205.44;8406702;27;20476;-47
2022/12/14 04:58:32;;;;;;;19.25;8.68;;;;;;;-0.94;81.82;99199.19;8400375;27;20344;-47
2022/12/14 05:03:13;;;;;;;15.38;8.80;;;;;;;-0.91;81.16;99204.25;8367341;28;20499;-49
2022/12/14 05:07:24;;;;;;;22.48;8.40;;;;;;;-0.92;81.63;99197.28;8389824;28;20457;-49
2022/12/14 05:11:34;;;;;;;16.63;8.27;;;;;;;-0.93;81.90;99198.22;8398622;28;20039;-49
2022/12/14 05:15:41;;;;;;;21.15;9.18;;;;;;;-0.93;81.19;99187.63;8390299;27;20121;-49
2022/12/14 05:19:46;;;;;;;16.92;9.07;;;;;;;-0.91;81.30;99172.44;8390969;27;20051;-51
2022/12/14 05:23:46;;;;;;;17.55;8.25;;;;;;;-0.90;81.12;99166.22;8429084;27;20096;-50
2022/12/14 05:27:47;;;;;;;18.70;8.13;;;;;;;-0.90;81.82;99155.59;8401466;27;20051;-49
2022/12/14 05:31:47;;;;;;;18.52;7.85;;;;;;;-0.89;81.62;99153.78;8444333;27;20491;-50
2022/12/14 05:35:48;;;;;;;20.75;8.75;;;;;;;-0.92;81.96;99154.84;8449700;27;20489;-51
2022/12/14 05:39:49;;;;;;;18.17;9.02;;;;;;;-0.86;81.25;99154.44;8449472;27;20040;-49
2022/12/14 05:43:49;;;;;;;17.20;8.93;;;;;;;-0.84;81.22;99149.88;8449166;27;20247;-49
2022/12/14 05:47:50;;;;;;;21.00;8.80;;;;;;;-0.81;80.80;99139.06;8448999;27;20082;-49
2022/12/14 05:51:50;;;;;;;16.67;8.50;;;;;;;-0.79;80.60;99141.63;8364434;28;20585;-50
2022/12/14 05:55:51;;;;;;;18.45;8.93;;;;;;;-0.77;80.87;99142.34;8366087;28;20047;-53
2022/12/14 05:59:51;;;;;;;21.77;8.73;;;;;;;-0.78;80.57;99138.84;8398299;27;20413;-49
2022/12/14 06:03:52;;;;;;;19.40;9.27;;;;;;;-0.74;80.05;99142.13;8375379;28;20048;-50
2022/12/14 06:07:52;;;;;;;19.13;8.75;;;;;;;-0.72;80.37;99148.19;8377719;28;20052;-49
2022/12/14 06:11:53;;;;;;;21.27;8.73;;;;;;;-0.74;80.51;99148.28;8373338;28;20032;-50
2022/12/14 06:15:54;;;;;;;18.52;9.13;;;;;;;-0.73;80.72;99152.63;8367320;28;20065;-49
2022/12/14 06:19:54;;;;;;;18.13;9.18;;;;;;;-0.73;81.35;99152.63;8370846;28;20123;-49
2022/12/14 06:23:56;;;;;;;17.80;8.20;;;;;;;-0.72;80.86;99142.88;8375524;28;20155;-49
2022/12/14 06:27:56;;;;;;;14.48;8.15;;;;;;;-0.72;81.28;99154.34;8375062;28;20115;-49
2022/12/14 06:31:57;;;;;;;22.30;9.10;;;;;;;-0.71;80.58;99140.13;8372379;28;20044;-50
2022/12/14 06:35:57;;;;;;;19.35;9.02;;;;;;;-0.69;81.09;99148.84;8368343;28;20721;-49
2022/12/14 06:39:58;;;;;;;20.27;8.70;;;;;;;-0.70;80.78;99144.47;8382608;28;20194;-49
2022/12/14 06:44:04;;;;;;;15.88;8.52;;;;;;;-0.67;81.08;99146.91;8393065;28;20127;-50
2022/12/14 06:48:05;;;;;;;17.73;8.52;;;;;;;-0.69;81.78;99145.34;8390867;28;20063;-52
2022/12/14 06:52:05;;;;;;;16.92;7.80;;;;;;;-0.68;81.00;99139.94;8390997;28;20037;-49
2022/12/14 06:56:16;;;;;;;21.20;9.02;;;;;;;-0.63;80.17;99148.44;8391213;28;20127;-50
2022/12/14 07:00:17;;;;;;;17.92;9.10;;;;;;;-0.63;80.76;99151.09;8390466;28;20117;-49
2022/12/14 07:04:20;;;;;;;17.90;9.45;;;;;;;-0.63;80.84;99143.13;8380997;28;20059;-49
2022/12/14 07:08:20;;;;;;;16.38;8.73;;;;;;;-0.60;80.73;99153.53;8375955;28;20060;-49
2022/12/14 07:12:20;;;;;;;19.38;8.85;;;;;;;-0.61;80.40;99148.31;8359588;28;20140;-49
2022/12/14 07:16:24;;;;;;;16.98;8.43;;;;;;;-0.62;80.81;99139.50;8391127;28;20441;-49
2022/12/14 07:20:25;;;;;;;20.55;8.73;;;;;;;-0.58;81.16;99135.69;8371195;28;20082;-52
2022/12/14 07:24:25;;;;;;;18.58;8.43;;;;;;;-0.61;81.58;99138.53;8390920;28;20048;-50
2022/12/14 07:28:27;;;;;;;19.33;8.23;;;;;;;-0.64;81.74;99137.91;8391397;28;20059;-49
2022/12/14 07:32:27;;;;;;;16.33;9.07;;;;;;;-0.61;81.90;99137.72;8389104;28;20508;-54
2022/12/14 07:36:29;;;;;;;31.25;13.80;;;;;;;-0.61;81.85;99141.19;8392007;28;20044;-51
2022/12/14 07:40:32;;;;;;;25.73;12.55;;;;;;;-0.57;81.53;99142.72;8377870;28;20078;-51
2022/12/14 07:44:33;;;;;;;26.30;12.50;;;;;;;-0.56;81.94;99144.41;8384792;28;20056;-51
2022/12/14 07:48:34;;;;;;;24.38;11.68;;;;;;;-0.58;81.59;99140.97;8384908;28;20041;-53
2022/12/14 07:52:34;;;;;;;33.35;15.50;;;;;;;-0.56;81.59;99140.88;8380325;28;20049;-52
2022/12/14 07:56:38;;;;;;;23.73;12.40;;;;;;;-0.56;82.31;99138.22;8381105;28;20050;-51
2022/12/14 08:00:39;;;;;;;25.95;12.57;;;;;;;-0.53;81.74;99138.00;8390422;28;20059;-49
2022/12/14 08:04:40;;;;;;;32.50;12.98;;;;;;;-0.51;82.02;99144.09;8377973;28;20036;-51
2022/12/14 08:08:41;;;;;;;28.08;13.90;;;;;;;-0.48;81.78;99139.41;8389606;28;20036;-51
2022/12/14 08:12:42;;;;;;;23.30;9.93;;;;;;;-0.47;82.59;99148.22;8389606;28;20051;-52
2022/12/14 08:16:43;;;;;;;22.40;10.13;;;;;;;-0.43;81.77;99131.97;8388910;28;20554;-53
2022/12/14 08:20:48;;;;;;;22.83;9.55;;;;;;;-0.37;81.27;99133.34;8389493;28;20047;-53
2022/12/14 08:24:49;;;;;;;20.85;9.38;;;;;;;-0.33;80.89;99132.19;8392600;28;20557;-50
2022/12/14 08:28:50;;;;;;;27.38;11.65;;;;;;;-0.26;82.07;99128.16;8389555;28;20371;-49
2022/12/14 08:32:50;;;;;;;21.13;9.75;;;;;;;-0.21;80.73;99144.63;8370963;28;20029;-49
2022/12/14 08:36:51;;;;;;;23.42;10.32;;;;;;;-0.20;80.55;99146.31;8357224;28;20151;-52
2022/12/14 08:40:51;;;;;;;23.38;9.90;;;;;;;-0.17;80.94;99136.31;8357055;28;20128;-50
2022/12/14 08:44:52;;;;;;;19.83;10.80;;;;;;;-0.15;80.61;99129.06;8356584;28;20044;-50
2022/12/14 08:48:54;;;;;;;24.10;10.75;;;;;;;-0.15;80.93;99126.44;8364397;28;20454;-49
2022/12/14 08:52:55;;;;;;;26.92;10.35;;;;;;;-0.11;81.28;99140.34;8389620;28;20028;-49
2022/12/14 08:56:55;;;;;;;18.45;9.45;;;;;;;-0.10;80.52;99137.59;8389824;28;20071;-50
2022/12/14 09:01:05;;;;;;;19.33;8.98;;;;;;;-0.10;80.97;99156.19;8383093;28;20040;-50
2022/12/14 09:05:06;;;;;;;20.30;10.18;;;;;;;-0.15;80.04;99145.00;8389335;28;20074;-49
2022/12/14 09:09:08;;;;;;;19.52;10.43;;;;;;;-0.05;79.99;99166.47;8389437;28;20081;-51
2022/12/14 09:13:28;;;;;;;18.88;9.40;;;;;;;0.01;79.60;99166.03;8389409;28;20493;-53
2022/12/14 09:17:29;;;;;;;22.90;11.57;;;;;;;0.09;80.09;99169.00;8389582;28;20044;-51
2022/12/14 09:21:30;;;;;;;22.42;10.02;;;;;;;0.14;79.96;99181.94;8387058;28;20040;-51
2022/12/14 09:25:30;;;;;;;21.30;9.90;;;;;;;0.18;80.22;99180.78;8389368;28;20041;-52
2022/12/14 09:29:31;;;;;;;22.00;10.05;;;;;;;0.17;79.38;99179.06;8388707;28;20095;-49
2022/12/14 09:33:32;;;;;;;23.35;10.40;;;;;;;0.21;80.16;99185.88;8398843;28;20086;-50
2022/12/14 09:37:33;;;;;;;21.00;10.80;;;;;;;0.25;78.73;99184.72;8367632;28;20449;-50
2022/12/14 09:45:51;;;;;;;22.38;10.65;;;;;;;0.42;78.91;99184.38;8485716;27;21005;-48
2022/12/14 09:49:59;;;;;;;21.48;10.57;;;;;;;0.54;79.44;99183.44;8458712;27;20681;-48
2022/12/14 09:54:09;;;;;;;20.25;9.02;;;;;;;0.68;77.79;99185.97;8419134;27;20454;-48
2022/12/14 09:58:25;;;;;;;21.50;8.65;;;;;;;0.80;77.52;99182.41;8418104;27;20523;-47
2022/12/14 10:02:54;;;;;;;21.27;10.48;;;;;;;0.98;76.01;99181.88;8418860;28;22664;-49
2022/12/14 10:07:30;;;;;;;23.08;10.93;;;;;;;0.93;76.06;99180.53;8450111;27;20147;-49
2022/12/14 10:12:10;;;;;;;30.25;14.52;;;;;;;0.82;77.67;99191.16;8449959;27;20058;-47
2022/12/14 10:16:27;;;;;;;23.42;11.10;;;;;;;0.65;77.47;99183.53;8451144;27;20493;-49
2022/12/14 10:20:39;;;;;;;24.63;11.38;;;;;;;0.59;77.82;99179.53;8452191;27;20397;-47
2022/12/14 10:24:45;;;;;;;28.77;13.52;;;;;;;0.65;78.40;99188.84;8450101;27;20040;-48
2022/12/14 10:28:52;;;;;;;17.25;10.05;;;;;;;0.58;78.36;99187.59;8450915;27;20579;-47
2022/12/14 10:33:04;;;;;;;25.83;12.93;;;;;;;0.60;78.63;99188.31;8448786;27;20035;-47
2022/12/14 10:37:29;;;;;;;18.85;10.25;;;;;;;0.60;79.12;99185.66;8420457;27;20048;-51
2022/12/14 10:46:08;;;;;;;23.17;11.95;;;;;;;0.64;79.60;99176.53;8316901;28;21314;-51
2022/12/14 10:50:49;;;;;;;27.77;12.18;;;;;;;0.72;80.18;99171.47;8319234;28;20577;-52
2022/12/14 10:54:53;;;;;;;28.75;12.18;;;;;;;0.67;80.85;99165.66;8313010;28;20364;-49
2022/12/14 11:03:28;;;;;;;25.33;9.93;;;;;;;0.69;82.47;99169.03;8405837;27;21334;-48
2022/12/14 11:11:45;;;;;;;29.98;12.80;;;;;;;0.62;83.28;99167.81;8319355;28;20379;-48
2022/12/14 11:15:49;;;;;;;26.85;12.93;;;;;;;0.65;84.36;99156.94;8319878;28;20127;-49
2022/12/14 11:20:01;;;;;;;;;;;;;;;0.67;84.59;99163.84;8320485;28;20122;-49
2022/12/14 11:24:03;;;;;;;28.73;12.63;;;;;;;0.65;84.23;99159.59;8318326;28;19917;-48
2022/12/14 11:28:17;;;;;;;22.15;11.98;;;;;;;0.61;84.18;99166.13;8318363;28;20038;-48
2022/12/14 11:32:23;;;;;;;25.63;13.00;;;;;;;0.70;84.28;99170.75;8319468;28;20391;-48
2022/12/14 11:36:35;;;;;;;28.40;12.30;;;;;;;0.75;85.01;99168.59;8324980;28;20045;-48
2022/12/14 11:40:36;;;;;;;27.88;12.23;;;;;;;0.82;84.97;99169.88;8319306;28;20037;-51
2022/12/14 11:44:37;;;;;;;23.13;11.88;;;;;;;0.78;84.61;99169.22;8318969;28;20382;-50
2022/12/14 11:48:47;;;;;;;24.27;11.63;;;;;;;0.77;85.20;99166.69;8323397;28;20056;-49
2022/12/14 11:52:47;;;;;;;24.30;12.55;;;;;;;0.78;84.31;99163.06;8316409;28;20100;-48
2022/12/14 11:56:50;;;;;;;26.48;11.60;;;;;;;0.83;83.77;99160.91;8317838;28;20129;-48
2022/12/14 12:00:57;;;;;;;21.85;11.50;;;;;;;0.81;84.56;99162.84;8317177;28;20037;-50
2022/12/14 12:05:18;;;;;;;29.25;12.82;;;;;;;0.90;85.77;99156.84;8317027;28;20121;-48
2022/12/14 12:09:34;;;;;;;30.45;11.52;;;;;;;0.94;85.27;99163.63;8315892;28;20129;-48
2022/12/14 12:13:39;;;;;;;28.65;12.73;;;;;;;0.90;85.35;99163.00;8306133;28;20173;-50
2022/12/14 12:17:43;;;;;;;24.85;12.70;;;;;;;0.95;84.35;99162.69;8306834;28;20041;-50
2022/12/14 12:21:44;;;;;;;28.45;11.80;;;;;;;0.98;82.72;99173.09;8290166;28;20034;-52
2022/12/14 12:25:48;;;;;;;22.65;11.43;;;;;;;1.00;83.29;99163.16;8266736;28;20439;-52
2022/12/14 12:29:59;;;;;;;29.23;12.18;;;;;;;1.00;83.62;99157.84;8285394;28;20034;-50
2022/12/14 12:34:03;;;;;;;22.10;12.18;;;;;;;1.03;83.71;99163.78;8295295;28;20065;-51
2022/12/14 12:38:17;;;;;;;23.95;11.45;;;;;;;0.91;83.26;99156.72;8281503;28;20040;-48
2022/12/14 12:42:45;;;;;;;31.55;14.55;;;;;;;1.02;83.80;99166.56;8274383;28;20125;-47
2022/12/14 12:47:01;;;;;;;35.53;15.23;;;;;;;1.22;82.98;99160.63;8283421;28;20569;-49
2022/12/14 12:51:09;;;;;;;23.10;11.48;;;;;;;1.15;81.56;99162.88;8283241;28;20457;-48
2022/12/14 12:55:16;;;;;;;27.90;12.63;;;;;;;1.19;82.21;99172.31;8278523;28;20038;-51
2022/12/14 12:59:25;;;;;;;26.23;12.15;;;;;;;1.18;81.16;99178.59;8282615;28;20034;-48
2022/12/14 13:03:38;;;;;;;22.02;11.73;;;;;;;1.11;81.20;99187.16;8286474;28;20034;-48
2022/12/14 13:07:57;;;;;;;29.27;13.38;;;;;;;1.17;81.67;99190.22;8287611;28;20038;-50
2022/12/14 13:12:00;;;;;;;29.02;12.75;;;;;;;1.15;81.05;99191.28;8289096;28;20076;-47
2022/12/14 13:16:15;;;;;;;28.48;13.52;;;;;;;1.14;80.38;99193.13;8288299;28;20053;-48
2022/12/14 13:20:23;;;;;;;22.38;12.45;;;;;;;1.08;81.41;99198.91;8274211;28;20522;-47
2022/12/14 13:24:24;;;;;;;26.67;13.38;;;;;;;1.09;82.64;99194.41;8290230;28;20038;-47
2022/12/14 13:28:54;;;;;;;25.10;12.40;;;;;;;1.03;82.29;99198.38;8288502;28;20310;-47
2022/12/14 13:33:35;;;;;;;24.98;13.57;;;;;;;0.95;81.88;99181.28;8288227;28;20131;-49
2022/12/14 13:37:45;;;;;;;27.85;13.07;;;;;;;1.08;83.25;99198.03;8281924;28;20100;-48
2022/12/14 13:42:04;;;;;;;27.55;13.35;;;;;;;0.97;83.56;99197.97;8235704;28;20041;-49
2022/12/14 13:46:15;;;;;;;28.52;13.75;;;;;;;0.84;83.84;99195.38;8283808;28;20041;-47
2022/12/14 13:50:30;;;;;;;26.30;13.57;;;;;;;0.78;83.71;99194.97;8287435;28;20042;-48
2022/12/14 13:54:37;;;;;;;24.48;13.38;;;;;;;0.72;84.30;99201.59;8287805;28;20289;-49
2022/12/14 13:58:41;;;;;;;27.15;14.10;;;;;;;0.73;85.17;99205.94;8287117;28;20053;-47
2022/12/14 14:02:50;;;;;;;31.25;14.27;;;;;;;0.84;85.46;99199.84;8288565;28;20030;-49
2022/12/14 14:06:53;;;;;;;31.98;14.13;;;;;;;0.94;85.08;99203.50;8288081;28;20030;-48
2022/12/14 14:10:54;;;;;;;30.23;14.15;;;;;;;1.02;84.47;99201.16;8287492;28;20030;-51
2022/12/14 14:15:10;;;;;;;29.20;14.20;;;;;;;1.11;83.99;99208.44;8287828;28;20091;-47
2022/12/14 14:19:18;;;;;;;26.80;13.77;;;;;;;1.13;83.70;99217.19;8285276;28;20057;-48
2022/12/14 14:27:53;;;;;;;31.95;13.77;;;;;;;1.21;83.33;99215.63;8311412;27;20390;-49
2022/12/14 14:32:00;;;;;;;30.17;14.02;;;;;;;1.20;82.95;99223.75;8285131;28;20054;-49
2022/12/14 14:36:29;;;;;;;28.17;13.73;;;;;;;1.25;83.47;99216.28;8282363;28;20049;-49
2022/12/14 14:40:32;;;;;;;25.92;13.02;;;;;;;1.26;83.55;99223.28;8283267;28;20554;-49
2022/12/14 14:44:39;;;;;;;24.45;12.75;;;;;;;1.24;83.53;99227.84;8281897;28;20109;-49
2022/12/14 14:48:50;;;;;;;30.85;13.25;;;;;;;1.17;82.17;99235.47;8278216;28;20048;-49
2022/12/14 14:53:09;;;;;;;30.88;14.90;;;;;;;1.15;83.97;99225.88;8295449;28;20087;-49
2022/12/14 14:57:34;;;;;;;33.15;13.48;;;;;;;1.01;83.70;99244.69;8281231;28;20081;-50
2022/12/14 15:01:35;;;;;;;30.65;15.07;;;;;;;0.90;84.99;99247.28;8282725;28;20125;-49
2022/12/14 15:05:37;;;;;;;33.13;15.50;;;;;;;0.73;86.54;99253.81;8281640;28;20366;-51
2022/12/14 15:09:44;;;;;;;32.53;14.20;;;;;;;0.54;87.27;99261.41;8280999;28;20038;-50
2022/12/14 15:13:52;;;;;;;33.25;13.35;;;;;;;0.49;87.01;99262.69;8281588;28;20030;-50
2022/12/14 15:17:53;;;;;;;32.08;15.13;;;;;;;0.41;87.49;99260.56;8273494;28;20408;-50
2022/12/14 15:21:58;;;;;;;34.15;14.98;;;;;;;0.17;87.59;99266.75;8279226;28;20046;-51
2022/12/14 15:26:01;;;;;;;32.03;13.80;;;;;;;-0.10;89.26;99275.69;8280989;28;20487;-51
2022/12/14 15:30:22;;;;;;;34.53;15.52;;;;;;;-0.21;90.09;99266.75;8304283;28;20034;-51
2022/12/14 15:34:23;;;;;;;40.53;15.02;;;;;;;-0.11;88.44;99273.97;8313226;28;20065;-52
2022/12/14 15:38:29;;;;;;;46.10;15.65;;;;;;;-0.19;88.37;99292.22;8257790;28;20045;-52
2022/12/14 15:42:29;;;;;;;47.00;18.25;;;;;;;-0.38;89.26;99301.53;8259164;28;20062;-49
2022/12/14 15:46:33;;;;;;;66.88;23.40;;;;;;;-0.50;90.20;99308.50;8258552;28;20306;-52
2022/12/14 15:50:34;;;;;;;53.53;21.97;;;;;;;-0.59;91.40;99314.41;8252245;28;20044;-50
2022/12/14 15:54:35;;;;;;;44.33;19.08;;;;;;;-0.62;91.91;99324.38;8259145;28;20290;-49
2022/12/14 15:58:38;;;;;;;37.20;15.05;;;;;;;-0.61;93.11;99316.31;8249512;28;20046;-51
2022/12/14 16:02:42;;;;;;;43.22;17.27;;;;;;;-0.80;93.41;99318.47;8231556;28;20043;-49
2022/12/14 16:06:49;;;;;;;35.58;15.07;;;;;;;-0.93;93.26;99319.38;8250537;28;20065;-49
2022/12/14 16:10:53;;;;;;;31.92;14.35;;;;;;;-1.06;94.62;99327.25;8238458;28;20043;-50
2022/12/14 16:14:57;;;;;;;32.67;15.15;;;;;;;-1.17;93.70;99327.09;8236518;28;20039;-49
2022/12/14 16:18:58;;;;;;;29.73;14.73;;;;;;;-1.33;95.51;99331.66;8253731;28;20097;-49
2022/12/14 16:27:51;;;;;;;34.40;13.88;;;;;;;-1.52;96.20;99356.72;8334050;27;20929;-50
2022/12/14 16:32:14;;;;;;;38.70;16.05;;;;;;;-1.31;96.98;99364.19;8304897;28;20041;-49
2022/12/14 16:40:34;;;;;;;36.72;14.98;;;;;;;-1.63;96.82;99357.38;8399218;27;20353;-53
2022/12/14 16:44:37;;;;;;;40.15;15.88;;;;;;;-1.70;96.80;99357.84;8399278;27;20048;-47
2022/12/14 16:48:41;;;;;;;43.97;17.40;;;;;;;-1.80;97.85;99362.84;8408530;27;20032;-47
2022/12/14 16:52:42;;;;;;;32.05;16.30;;;;;;;-1.80;97.54;99356.72;8405707;27;20538;-47
2022/12/14 16:56:43;;;;;;;41.22;15.98;;;;;;;-1.89;97.69;99359.91;8387748;27;20458;-48
2022/12/14 17:00:57;;;;;;;38.28;16.10;;;;;;;-2.07;97.56;99359.22;8409032;27;20051;-48
2022/12/14 17:05:00;;;;;;;39.00;16.33;;;;;;;-2.02;97.05;99360.63;8410452;27;20113;-48
2022/12/14 17:09:03;;;;;;;44.77;17.27;;;;;;;-2.12;97.02;99363.91;8410551;27;20123;-48
2022/12/14 17:13:03;;;;;;;40.55;17.33;;;;;;;-2.11;98.50;99379.69;8410520;27;20285;-47
2022/12/14 17:17:04;;;;;;;38.17;16.95;;;;;;;-2.07;98.51;99385.69;8412550;27;20540;-47
2022/12/14 17:21:06;;;;;;;37.45;16.13;;;;;;;-2.21;97.90;99375.91;8412993;27;20413;-47
2022/12/14 17:25:11;;;;;;;39.05;16.00;;;;;;;-2.38;97.36;99380.47;8411938;27;20067;-47
2022/12/14 17:29:19;;;;;;;38.75;14.98;;;;;;;-2.16;99.63;99375.63;8412113;27;20055;-48
2022/12/14 17:33:20;;;;;;;35.42;14.65;;;;;;;-2.45;98.29;99389.69;8419300;27;20036;-48
2022/12/14 17:37:23;;;;;;;35.95;14.68;;;;;;;-2.45;97.91;99394.97;8445159;27;20085;-47
2022/12/14 17:41:25;;;;;;;35.37;15.70;;;;;;;-2.54;98.12;99395.50;8445766;27;20100;-48
2022/12/14 17:45:28;;;;;;;40.88;14.95;;;;;;;-2.61;98.40;99399.44;8445482;27;20036;-50
2022/12/14 17:49:37;;;;;;;30.67;14.27;;;;;;;-2.65;98.80;99398.75;8406244;27;20040;-48
2022/12/14 17:53:38;;;;;;;28.90;14.15;;;;;;;-2.79;99.17;99411.03;8360314;28;20037;-48
2022/12/14 17:57:39;;;;;;;34.88;15.05;;;;;;;-2.70;99.17;99415.81;8368521;28;20527;-47
2022/12/14 18:01:40;;;;;;;38.30;15.75;;;;;;;-2.67;99.66;99405.06;8352571;28;20536;-48
2022/12/14 18:05:42;;;;;;;37.70;15.55;;;;;;;-2.64;99.18;99411.03;8372349;28;20064;-49
2022/12/14 18:09:42;;;;;;;38.47;14.55;;;;;;;-2.69;97.83;99413.09;8343986;28;20429;-47
2022/12/14 18:13:43;;;;;;;38.70;15.27;;;;;;;-2.75;98.58;99404.63;8335443;28;20136;-47
2022/12/14 18:17:44;;;;;;;41.08;15.20;;;;;;;-3.08;98.14;99403.84;8337731;28;20048;-47
2022/12/14 18:21:44;;;;;;;39.03;14.95;;;;;;;-3.10;99.41;99413.66;8336424;28;20061;-47
2022/12/14 18:25:49;;;;;;;36.83;14.75;;;;;;;-2.81;100.00;99419.03;8332891;28;20484;-47
2022/12/14 18:29:49;;;;;;;43.33;15.80;;;;;;;-2.83;99.28;99426.22;8339526;28;20034;-47
2022/12/14 18:33:50;;;;;;;39.95;16.08;;;;;;;-3.13;98.30;99424.38;8342083;28;20121;-47
2022/12/14 18:37:51;;;;;;;38.33;14.60;;;;;;;-3.30;97.64;99433.22;8338527;28;20076;-50
2022/12/14 18:41:51;;;;;;;46.88;18.55;;;;;;;-3.24;98.91;99429.38;8332837;28;20093;-47
2022/12/14 18:45:53;;;;;;;42.63;17.73;;;;;;;-3.13;100.00;99427.03;8331699;28;20055;-47
2022/12/14 18:49:54;;;;;;;52.13;21.10;;;;;;;-3.02;100.00;99429.97;8333221;28;20443;-47
2022/12/14 18:53:57;;;;;;;46.05;19.90;;;;;;;-2.92;100.00;99441.72;8368460;28;20137;-47
2022/12/14 18:58:00;;;;;;;58.95;21.63;;;;;;;-2.97;100.00;99441.13;8358384;28;20529;-47
2022/12/14 19:02:01;;;;;;;66.47;26.05;;;;;;;-3.05;99.65;99445.97;8351100;28;20104;-47
2022/12/14 19:06:06;;;;;;;55.38;23.63;;;;;;;-3.14;99.99;99451.75;8352099;28;20037;-47
2022/12/14 19:10:08;;;;;;;48.03;23.40;;;;;;;-3.31;98.65;99465.84;8352983;28;20075;-47
2022/12/14 19:14:09;;;;;;;55.70;24.35;;;;;;;-3.48;100.00;99467.69;8349962;28;20033;-48
2022/12/14 19:18:09;;;;;;;49.65;20.52;;;;;;;-3.46;98.25;99465.78;8350951;28;20041;-48
2022/12/14 19:22:10;;;;;;;48.50;19.50;;;;;;;-3.64;98.07;99459.69;8351306;28;20164;-47
2022/12/14 19:26:11;;;;;;;54.60;22.10;;;;;;;-3.60;99.53;99474.41;8351083;28;20068;-47
2022/12/14 19:30:15;;;;;;;54.10;20.92;;;;;;;-3.72;98.13;99480.31;8348608;28;20042;-47
2022/12/14 19:34:15;;;;;;;45.53;19.00;;;;;;;-3.56;100.00;99477.78;8365245;28;20295;-48
2022/12/14 19:38:16;;;;;;;55.60;21.00;;;;;;;-3.55;100.00;99485.63;8344574;28;20037;-47
2022/12/14 19:42:19;;;;;;;51.13;21.35;;;;;;;-3.73;100.00;99488.34;8335297;28;20056;-47
2022/12/14 19:46:20;;;;;;;80.60;28.75;;;;;;;-3.60;100.00;99489.44;8344057;28;20132;-47
2022/12/14 19:50:20;;;;;;;62.95;23.35;;;;;;;-3.70;100.00;99504.00;8325980;28;20037;-48
2022/12/14 19:54:21;;;;;;;52.78;19.02;;;;;;;-3.72;100.00;99511.16;8320434;28;20037;-48
2022/12/14 19:58:23;;;;;;;46.90;19.10;;;;;;;-3.89;100.00;99503.22;8330975;28;20041;-47